Time;durP1;ratioP1;P1;durP2;ratioP2;P2;SDS_P1;SDS_P2;PMS_P1;PMS_P2;Temp;Humidity;BMP_temperature;BMP_pressure;BME280_temperature;BME280_humidity;BME280_pressure;Samples;Min_cycle;Max_cycle;Signal;HPM_P1;HPM_P2
2024/04/09 00:01:12;;;;;;;110.03;16.73;;;;;;;;;;5338415;26;20057;-39
2024/04/09 00:03:38;;;;;;;100.13;16.33;;;;;;;;;;5344302;26;21075;-38
2024/04/09 00:06:15;;;;;;;79.65;14.35;;;;;;;;;;5332172;26;20055;-38
2024/04/09 00:08:45;;;;;;;72.15;13.02;;;;;;;;;;5345081;26;20001;-37
2024/04/09 00:11:24;;;;;;;84.78;12.60;;;;;;;;;;5343623;26;20434;-38
2024/04/09 00:13:58;;;;;;;86.70;13.75;;;;;;;;;;5321967;26;20001;-39
2024/04/09 00:16:28;;;;;;;95.97;14.55;;;;;;;;;;5343872;26;20001;-38
2024/04/09 00:18:55;;;;;;;104.38;14.00;;;;;;;;;;5343382;26;20470;-39
2024/04/09 00:21:25;;;;;;;110.32;15.90;;;;;;;;;;5344230;26;20001;-39
2024/04/09 00:23:52;;;;;;;123.95;17.23;;;;;;;;;;5342572;26;20553;-39
2024/04/09 00:26:21;;;;;;;114.88;18.65;;;;;;;;;;5343125;26;20344;-39
2024/04/09 00:28:48;;;;;;;119.80;17.63;;;;;;;;;;5329553;26;20482;-39
2024/04/09 00:31:16;;;;;;;99.18;18.10;;;;;;;;;;5342953;26;20020;-39
2024/04/09 00:33:43;;;;;;;116.63;21.85;;;;;;;;;;5336412;26;20012;-38
2024/04/09 00:36:12;;;;;;;112.03;21.17;;;;;;;;;;5336382;26;20001;-40
2024/04/09 00:38:41;;;;;;;109.53;22.60;;;;;;;;;;5343495;26;19997;-39
2024/04/09 00:41:10;;;;;;;106.68;23.70;;;;;;;;;;5341011;26;20012;-40
2024/04/09 00:43:37;;;;;;;120.43;24.75;;;;;;;;;;5328593;26;20399;-39
2024/04/09 00:46:05;;;;;;;131.70;25.10;;;;;;;;;;5343904;26;20020;-39
2024/04/09 00:48:33;;;;;;;122.40;21.25;;;;;;;;;;5343701;26;20001;-39
2024/04/09 00:51:00;;;;;;;89.85;16.30;;;;;;;;;;5343592;26;20000;-39
2024/04/09 00:53:28;;;;;;;86.88;16.10;;;;;;;;;;5343766;26;20016;-39
2024/04/09 00:55:56;;;;;;;94.65;15.25;;;;;;;;;;5328372;26;20651;-39
2024/04/09 00:58:23;;;;;;;91.75;18.60;;;;;;;;;;5326230;26;20012;-40
2024/04/09 01:00:50;;;;;;;88.47;18.63;;;;;;;;;;5327688;26;20028;-39
2024/04/09 01:03:17;;;;;;;75.35;19.30;;;;;;;;;;5343988;26;19997;-39
2024/04/09 01:05:44;;;;;;;77.55;16.88;;;;;;;;;;5331320;26;20005;-39
2024/04/09 01:08:11;;;;;;;87.57;17.70;;;;;;;;;;5337013;26;20021;-39
2024/04/09 01:10:38;;;;;;;64.47;16.90;;;;;;;;;;5343947;26;20409;-39
2024/04/09 01:13:05;;;;;;;76.07;16.92;;;;;;;;;;5343871;26;20001;-39
2024/04/09 01:15:32;;;;;;;75.80;15.98;;;;;;;;;;5341772;26;20007;-39
2024/04/09 01:17:59;;;;;;;76.63;17.17;;;;;;;;;;5343540;26;20005;-40
2024/04/09 01:20:26;;;;;;;67.78;16.30;;;;;;;;;;5341720;26;20012;-39
2024/04/09 01:22:54;;;;;;;64.97;16.73;;;;;;;;;;5337771;26;20002;-39
2024/04/09 01:25:22;;;;;;;74.20;15.85;;;;;;;;;;5340620;26;20455;-38
2024/04/09 01:27:55;;;;;;;68.53;15.38;;;;;;;;;;5324255;26;20079;-39
2024/04/09 01:30:22;;;;;;;65.00;12.50;;;;;;;;;;5346940;26;20366;-39
2024/04/09 01:32:49;;;;;;;63.03;13.50;;;;;;;;;;5346893;26;20001;-38
2024/04/09 01:35:18;;;;;;;60.15;14.20;;;;;;;;;;5335721;26;20074;-39
2024/04/09 01:37:46;;;;;;;51.63;12.18;;;;;;;;;;5342152;26;20029;-39
2024/04/09 01:40:13;;;;;;;63.22;12.05;;;;;;;;;;5346800;26;20017;-38
2024/04/09 01:42:40;;;;;;;56.45;11.65;;;;;;;;;;5346062;26;20023;-39
2024/04/09 01:45:07;;;;;;;65.68;12.32;;;;;;;;;;5347112;26;20015;-39
2024/04/09 01:47:34;;;;;;;51.33;10.98;;;;;;;;;;5344155;26;20012;-40
2024/04/09 01:50:03;;;;;;;57.92;12.48;;;;;;;;;;5342028;26;20001;-38
2024/04/09 01:52:31;;;;;;;55.22;10.93;;;;;;;;;;5345714;26;20545;-39
2024/04/09 01:54:58;;;;;;;50.20;10.80;;;;;;;;;;5346525;26;20015;-39
2024/04/09 01:57:27;;;;;;;61.95;10.88;;;;;;;;;;5332277;26;20024;-38
2024/04/09 01:59:54;;;;;;;44.55;10.35;;;;;;;;;;5344817;26;19997;-39
2024/04/09 02:02:21;;;;;;;47.42;10.45;;;;;;;;;;5344831;26;19997;-39
2024/04/09 02:04:48;;;;;;;51.38;11.75;;;;;;;;;;5344457;26;19997;-38
2024/04/09 02:07:15;;;;;;;47.53;10.35;;;;;;;;;;5353629;26;20121;-40
2024/04/09 02:09:42;;;;;;;51.20;10.60;;;;;;;;;;5345790;26;20029;-40
2024/04/09 02:12:10;;;;;;;42.05;10.38;;;;;;;;;;5347727;26;20008;-39
2024/04/09 02:14:37;;;;;;;35.75;9.40;;;;;;;;;;5345148;26;20078;-39
2024/04/09 02:17:05;;;;;;;40.33;9.35;;;;;;;;;;5345351;26;20389;-39
2024/04/09 02:19:32;;;;;;;42.90;10.02;;;;;;;;;;5343414;26;20008;-40
2024/04/09 02:21:59;;;;;;;33.97;8.65;;;;;;;;;;5345414;26;20025;-39
2024/04/09 02:24:26;;;;;;;30.55;8.80;;;;;;;;;;5340036;26;20410;-39
2024/04/09 02:26:53;;;;;;;35.08;8.18;;;;;;;;;;5345463;26;20013;-40
2024/04/09 02:29:21;;;;;;;43.22;8.75;;;;;;;;;;5346450;26;20001;-39
2024/04/09 02:31:48;;;;;;;35.00;7.97;;;;;;;;;;5343352;26;19997;-38
2024/04/09 02:34:15;;;;;;;32.58;8.35;;;;;;;;;;5346658;26;20798;-38
2024/04/09 02:36:42;;;;;;;24.13;6.88;;;;;;;;;;5346802;26;19997;-39
2024/04/09 02:39:10;;;;;;;26.50;7.50;;;;;;;;;;5346609;26;20010;-38
2024/04/09 02:41:39;;;;;;;26.48;7.85;;;;;;;;;;5343844;26;20015;-38
2024/04/09 02:44:07;;;;;;;30.00;7.55;;;;;;;;;;5346479;26;19997;-38
2024/04/09 02:46:35;;;;;;;25.88;8.10;;;;;;;;;;5346742;26;20012;-39
2024/04/09 02:49:03;;;;;;;32.83;8.15;;;;;;;;;;5346710;26;20455;-39
2024/04/09 02:51:30;;;;;;;25.98;7.35;;;;;;;;;;5344177;26;20001;-39
2024/04/09 02:53:57;;;;;;;25.08;7.25;;;;;;;;;;5346650;26;20001;-38
2024/04/09 02:56:24;;;;;;;26.00;7.38;;;;;;;;;;5346821;26;20001;-38
2024/04/09 02:58:51;;;;;;;24.75;7.47;;;;;;;;;;5346787;26;20001;-38
2024/04/09 03:01:18;;;;;;;27.58;6.75;;;;;;;;;;5344884;26;20015;-40
2024/04/09 03:03:45;;;;;;;25.27;7.63;;;;;;;;;;5344361;26;20001;-38
2024/04/09 03:06:13;;;;;;;23.95;6.70;;;;;;;;;;5346480;26;20000;-38
2024/04/09 03:08:40;;;;;;;24.23;7.10;;;;;;;;;;5346188;26;19997;-39
2024/04/09 03:11:12;;;;;;;27.67;7.38;;;;;;;;;;5346810;26;20012;-39
2024/04/09 03:13:39;;;;;;;18.52;6.32;;;;;;;;;;5344589;26;20000;-39
2024/04/09 03:16:27;;;;;;;22.40;6.72;;;;;;;;;;5344681;26;20005;-39
2024/04/09 03:18:54;;;;;;;21.60;6.38;;;;;;;;;;5346595;26;20045;-39
2024/04/09 03:21:21;;;;;;;24.15;6.78;;;;;;;;;;5346138;26;20001;-38
2024/04/09 03:23:48;;;;;;;28.42;6.75;;;;;;;;;;5344511;26;20016;-38
2024/04/09 03:26:15;;;;;;;22.30;6.35;;;;;;;;;;5344512;26;20466;-38
2024/04/09 03:28:42;;;;;;;18.88;6.25;;;;;;;;;;5346336;26;20005;-38
2024/04/09 03:31:11;;;;;;;19.27;6.22;;;;;;;;;;5346108;26;20083;-38
2024/04/09 03:33:38;;;;;;;24.33;6.75;;;;;;;;;;5345191;26;20019;-39
2024/04/09 03:36:07;;;;;;;26.65;7.70;;;;;;;;;;5344673;26;20037;-39
2024/04/09 03:38:34;;;;;;;17.05;6.20;;;;;;;;;;5345881;26;20037;-39
2024/04/09 03:41:08;;;;;;;20.83;7.07;;;;;;;;;;5345932;26;20347;-39
2024/04/09 03:43:35;;;;;;;18.20;5.85;;;;;;;;;;5343937;26;20347;-39
2024/04/09 03:46:08;;;;;;;21.02;6.72;;;;;;;;;;5344003;26;20019;-38
2024/04/09 03:48:35;;;;;;;19.38;6.65;;;;;;;;;;5345083;26;20009;-38
2024/04/09 03:51:02;;;;;;;18.83;6.75;;;;;;;;;;5345107;26;20000;-39
2024/04/09 03:53:29;;;;;;;18.85;6.38;;;;;;;;;;5345550;26;20041;-38
2024/04/09 03:55:57;;;;;;;19.15;6.50;;;;;;;;;;5343799;26;20001;-38
2024/04/09 03:58:24;;;;;;;17.58;6.40;;;;;;;;;;5345691;26;20005;-37
2024/04/09 04:00:58;;;;;;;19.63;6.85;;;;;;;;;;5345672;26;20001;-38
2024/04/09 04:03:26;;;;;;;20.02;7.13;;;;;;;;;;5345203;26;20019;-38
2024/04/09 04:05:53;;;;;;;16.85;6.57;;;;;;;;;;5344349;26;20343;-38
2024/04/09 04:08:24;;;;;;;19.20;7.45;;;;;;;;;;5345072;26;20090;-38
2024/04/09 04:11:03;;;;;;;18.42;6.80;;;;;;;;;;5345169;26;20029;-39
2024/04/09 04:13:31;;;;;;;17.83;6.97;;;;;;;;;;5345344;26;20024;-39
2024/04/09 04:15:59;;;;;;;18.88;6.63;;;;;;;;;;5345545;26;20325;-38
2024/04/09 04:18:27;;;;;;;18.17;6.45;;;;;;;;;;5343543;26;20019;-38
2024/04/09 04:20:54;;;;;;;20.13;7.30;;;;;;;;;;5345206;26;20023;-38
2024/04/09 04:23:22;;;;;;;18.88;7.03;;;;;;;;;;5344990;26;20451;-40
2024/04/09 04:26:01;;;;;;;15.40;5.88;;;;;;;;;;5345216;26;20001;-39
2024/04/09 04:28:28;;;;;;;21.08;7.40;;;;;;;;;;5343290;26;20451;-38
2024/04/09 04:30:56;;;;;;;18.00;6.75;;;;;;;;;;5345059;26;20455;-39
2024/04/09 04:33:23;;;;;;;17.55;6.50;;;;;;;;;;5344994;26;20016;-39
2024/04/09 04:35:51;;;;;;;17.27;6.55;;;;;;;;;;5345596;26;20018;-39
2024/04/09 04:38:19;;;;;;;14.95;6.40;;;;;;;;;;5343074;26;20013;-38
2024/04/09 04:40:46;;;;;;;16.25;7.15;;;;;;;;;;5344779;26;20059;-38
2024/04/09 04:43:13;;;;;;;16.88;6.93;;;;;;;;;;5344964;26;20001;-38
2024/04/09 04:45:49;;;;;;;17.02;6.28;;;;;;;;;;5345079;26;20032;-39
2024/04/09 04:48:19;;;;;;;18.77;7.25;;;;;;;;;;5344679;26;20041;-40
2024/04/09 04:50:46;;;;;;;16.88;6.57;;;;;;;;;;5343781;26;20000;-39
2024/04/09 04:53:14;;;;;;;21.23;6.68;;;;;;;;;;5344399;26;20068;-39
2024/04/09 04:55:41;;;;;;;17.00;6.47;;;;;;;;;;5344758;26;20070;-39
2024/04/09 04:58:08;;;;;;;18.67;6.72;;;;;;;;;;5345078;26;20364;-39
2024/04/09 05:00:37;;;;;;;15.60;6.07;;;;;;;;;;5342787;26;20001;-38
2024/04/09 05:03:04;;;;;;;16.20;6.15;;;;;;;;;;5343922;26;20414;-38
2024/04/09 05:05:32;;;;;;;17.52;6.40;;;;;;;;;;5344460;26;20001;-38
2024/04/09 05:07:59;;;;;;;16.65;6.65;;;;;;;;;;5344316;26;20005;-39
2024/04/09 05:10:26;;;;;;;15.32;5.97;;;;;;;;;;5342770;26;20041;-39
2024/04/09 05:12:53;;;;;;;15.18;5.82;;;;;;;;;;5344550;26;20001;-39
2024/04/09 05:15:21;;;;;;;13.95;6.15;;;;;;;;;;5344321;26;20581;-39
2024/04/09 05:17:48;;;;;;;13.23;6.05;;;;;;;;;;5338938;26;19997;-38
2024/04/09 05:20:16;;;;;;;14.52;6.20;;;;;;;;;;5343920;26;20036;-39
2024/04/09 05:22:44;;;;;;;15.00;6.47;;;;;;;;;;5342722;26;20011;-39
2024/04/09 05:25:12;;;;;;;16.55;6.07;;;;;;;;;;5344240;26;19997;-39
2024/04/09 05:27:39;;;;;;;14.98;6.25;;;;;;;;;;5344391;26;20016;-39
2024/04/09 05:30:07;;;;;;;10.13;5.18;;;;;;;;;;5344610;26;20001;-39
2024/04/09 05:32:37;;;;;;;12.23;6.10;;;;;;;;;;5342498;26;20021;-38
2024/04/09 05:35:05;;;;;;;15.93;5.68;;;;;;;;;;5344116;26;20091;-38
2024/04/09 05:37:32;;;;;;;14.13;5.45;;;;;;;;;;5344086;26;20016;-38
2024/04/09 05:40:00;;;;;;;11.15;5.30;;;;;;;;;;5343532;26;19997;-38
2024/04/09 05:42:27;;;;;;;16.23;5.72;;;;;;;;;;5340494;26;19997;-38
2024/04/09 05:44:54;;;;;;;13.32;5.55;;;;;;;;;;5344026;26;20439;-38
2024/04/09 05:47:24;;;;;;;14.75;5.10;;;;;;;;;;5343465;26;20016;-39
2024/04/09 05:49:51;;;;;;;9.45;5.30;;;;;;;;;;5344002;26;20001;-39
2024/04/09 05:52:18;;;;;;;12.55;5.25;;;;;;;;;;5342960;26;20078;-39
2024/04/09 05:54:45;;;;;;;13.50;5.32;;;;;;;;;;5343364;26;20037;-38
2024/04/09 05:57:12;;;;;;;9.82;4.93;;;;;;;;;;5343793;26;19997;-39
2024/04/09 05:59:39;;;;;;;10.80;5.07;;;;;;;;;;5344092;26;20402;-39
2024/04/09 06:02:07;;;;;;;13.52;5.03;;;;;;;;;;5341604;26;20001;-38
2024/04/09 06:04:34;;;;;;;14.23;4.88;;;;;;;;;;5341867;26;20001;-39
2024/04/09 06:07:03;;;;;;;10.32;4.55;;;;;;;;;;5343590;26;20251;-39
2024/04/09 06:09:30;;;;;;;9.63;4.82;;;;;;;;;;5343077;26;20016;-38
2024/04/09 06:11:58;;;;;;;9.20;4.85;;;;;;;;;;5343694;26;20009;-38
2024/04/09 06:14:26;;;;;;;9.90;4.65;;;;;;;;;;5341527;26;20471;-38
2024/04/09 06:16:53;;;;;;;11.15;4.38;;;;;;;;;;5346531;26;20017;-37
2024/04/09 06:19:20;;;;;;;9.95;4.85;;;;;;;;;;5346823;26;20008;-39
2024/04/09 06:21:47;;;;;;;8.88;4.53;;;;;;;;;;5346703;26;20005;-38
2024/04/09 06:24:14;;;;;;;12.30;4.15;;;;;;;;;;5345614;26;20078;-40
2024/04/09 06:26:41;;;;;;;10.20;4.28;;;;;;;;;;5345567;26;20019;-38
2024/04/09 06:29:09;;;;;;;10.32;4.70;;;;;;;;;;5347131;26;20005;-38
2024/04/09 06:31:37;;;;;;;14.23;4.47;;;;;;;;;;5346775;26;20001;-39
2024/04/09 06:34:04;;;;;;;10.38;4.35;;;;;;;;;;5346988;26;20012;-39
2024/04/09 06:36:31;;;;;;;9.38;4.30;;;;;;;;;;5345102;26;20001;-39
2024/04/09 06:38:58;;;;;;;7.22;3.75;;;;;;;;;;5346461;26;20004;-38
2024/04/09 06:41:25;;;;;;;6.85;3.70;;;;;;;;;;5346755;26;20012;-38
2024/04/09 06:43:52;;;;;;;8.85;3.70;;;;;;;;;;5346402;26;20001;-38
2024/04/09 06:46:19;;;;;;;7.28;3.70;;;;;;;;;;5344951;26;20070;-39
2024/04/09 06:48:46;;;;;;;8.68;3.85;;;;;;;;;;5346762;26;20071;-39
2024/04/09 06:51:13;;;;;;;6.82;3.53;;;;;;;;;;5346431;26;20001;-39
2024/04/09 06:53:40;;;;;;;6.05;2.78;;;;;;;;;;5346872;26;20041;-39
2024/04/09 06:56:07;;;;;;;5.43;2.90;;;;;;;;;;5346438;26;20007;-38
2024/04/09 06:58:34;;;;;;;5.30;2.60;;;;;;;;;;5344136;26;20078;-38
2024/04/09 07:01:01;;;;;;;13.95;2.60;;;;;;;;;;5346981;26;20004;-38
2024/04/09 07:03:28;;;;;;;14.73;2.53;;;;;;;;;;5346116;26;20012;-39
2024/04/09 07:05:55;;;;;;;10.88;2.70;;;;;;;;;;5346889;26;20000;-39
2024/04/09 07:08:22;;;;;;;14.05;2.33;;;;;;;;;;5344952;26;20001;-37
2024/04/09 07:10:56;;;;;;;14.45;2.38;;;;;;;;;;5346630;26;20094;-38
2024/04/09 07:13:23;;;;;;;20.38;2.97;;;;;;;;;;5346109;26;20001;-38
2024/04/09 07:15:50;;;;;;;11.93;2.10;;;;;;;;;;5346636;26;20355;-39
2024/04/09 07:18:17;;;;;;;24.65;2.65;;;;;;;;;;5344496;26;20013;-38
2024/04/09 07:20:44;;;;;;;12.85;2.88;;;;;;;;;;5346595;26;20427;-38
2024/04/09 07:23:11;;;;;;;22.38;2.80;;;;;;;;;;5346254;26;20012;-38
2024/04/09 07:25:38;;;;;;;18.15;2.70;;;;;;;;;;5346375;26;20108;-38
2024/04/09 07:28:05;;;;;;;23.55;2.78;;;;;;;;;;5345647;26;20040;-38
2024/04/09 07:30:32;;;;;;;17.73;2.58;;;;;;;;;;5345081;26;20360;-38
2024/04/09 07:32:59;;;;;;;19.90;3.20;;;;;;;;;;5346295;26;20473;-39
2024/04/09 07:35:27;;;;;;;29.08;3.33;;;;;;;;;;5345848;26;20004;-38
2024/04/09 07:37:55;;;;;;;23.58;3.10;;;;;;;;;;5346110;26;20018;-38
2024/04/09 07:40:22;;;;;;;25.60;3.72;;;;;;;;;;5343469;26;20029;-39
2024/04/09 07:42:49;;;;;;;25.02;3.28;;;;;;;;;;5345649;26;20549;-38
2024/04/09 07:45:16;;;;;;;30.40;3.58;;;;;;;;;;5345638;26;20001;-38
2024/04/09 07:47:44;;;;;;;30.17;3.50;;;;;;;;;;5345966;26;19997;-37
2024/04/09 07:50:11;;;;;;;30.90;4.07;;;;;;;;;;5343841;26;19997;-38
2024/04/09 07:52:39;;;;;;;28.67;3.70;;;;;;;;;;5346119;26;20043;-37
2024/04/09 07:55:08;;;;;;;44.47;4.32;;;;;;;;;;5345793;26;20016;-38
2024/04/09 07:57:36;;;;;;;44.75;4.93;;;;;;;;;;5346059;26;20005;-38
2024/04/09 08:00:13;;;;;;;40.13;4.85;;;;;;;;;;5345342;26;20459;-38
2024/04/09 08:02:43;;;;;;;50.67;4.65;;;;;;;;;;5345030;26;20001;-38
2024/04/09 08:05:10;;;;;;;32.05;4.00;;;;;;;;;;5346013;26;20045;-38
2024/04/09 08:07:39;;;;;;;30.25;4.15;;;;;;;;;;5340357;26;20001;-39
2024/04/09 08:10:13;;;;;;;40.35;3.95;;;;;;;;;;5326249;26;20001;-39
2024/04/09 08:12:55;;;;;;;29.23;3.92;;;;;;;;;;5308591;26;20001;-38
2024/04/09 08:15:27;;;;;;;30.27;4.03;;;;;;;;;;5310503;26;20021;-37
2024/04/09 08:17:59;;;;;;;35.45;3.83;;;;;;;;;;5310647;26;20013;-38
2024/04/09 08:20:28;;;;;;;30.45;3.90;;;;;;;;;;5310740;26;20001;-37
2024/04/09 08:22:55;;;;;;;30.17;3.58;;;;;;;;;;5335892;26;20005;-37
2024/04/09 08:25:22;;;;;;;35.78;3.80;;;;;;;;;;5310926;26;20013;-38
2024/04/09 08:27:51;;;;;;;25.20;3.72;;;;;;;;;;5311034;26;20013;-37
2024/04/09 08:30:18;;;;;;;36.28;3.47;;;;;;;;;;5310521;26;20030;-37
2024/04/09 08:32:50;;;;;;;35.03;4.00;;;;;;;;;;5309178;26;20347;-37
2024/04/09 08:35:17;;;;;;;33.80;3.72;;;;;;;;;;5310392;26;20001;-38
2024/04/09 08:37:46;;;;;;;42.78;4.63;;;;;;;;;;5310127;26;20463;-38
2024/04/09 08:40:18;;;;;;;51.60;4.32;;;;;;;;;;5310654;26;20002;-38
2024/04/09 08:42:46;;;;;;;31.67;3.85;;;;;;;;;;5310190;26;20515;-39
2024/04/09 08:45:16;;;;;;;31.90;3.42;;;;;;;;;;5309069;26;20002;-37
2024/04/09 08:47:44;;;;;;;34.53;3.95;;;;;;;;;;5310820;26;20002;-38
2024/04/09 08:50:14;;;;;;;26.10;3.78;;;;;;;;;;5310513;26;20083;-38
2024/04/09 08:52:41;;;;;;;30.92;3.40;;;;;;;;;;5310652;26;20037;-39
2024/04/09 08:55:09;;;;;;;32.63;3.83;;;;;;;;;;5308227;26;20006;-39
2024/04/09 08:57:36;;;;;;;29.70;3.40;;;;;;;;;;5334241;26;20005;-37
2024/04/09 09:00:06;;;;;;;40.38;3.80;;;;;;;;;;5344913;26;20013;-37
2024/04/09 09:02:35;;;;;;;27.83;3.38;;;;;;;;;;5344036;26;20005;-38
2024/04/09 09:05:02;;;;;;;26.88;3.42;;;;;;;;;;5340320;26;20020;-37
2024/04/09 09:07:29;;;;;;;29.48;4.30;;;;;;;;;;5343925;26;20009;-38
2024/04/09 09:10:03;;;;;;;21.30;2.85;;;;;;;;;;5344230;26;20011;-38
2024/04/09 09:12:30;;;;;;;24.60;2.92;;;;;;;;;;5330333;26;20724;-37
2024/04/09 09:15:04;;;;;;;36.42;3.97;;;;;;;;;;5309182;26;20009;-37
2024/04/09 09:17:31;;;;;;;44.00;4.47;;;;;;;;;;5309323;26;20013;-38
2024/04/09 09:19:58;;;;;;;28.80;3.90;;;;;;;;;;5310421;26;20020;-38
2024/04/09 09:22:29;;;;;;;44.05;4.43;;;;;;;;;;5310249;26;20782;-37
2024/04/09 09:24:59;;;;;;;33.28;4.05;;;;;;;;;;5310027;26;20005;-37
2024/04/09 09:27:26;;;;;;;37.53;3.90;;;;;;;;;;5308187;26;20002;-38
2024/04/09 09:29:57;;;;;;;26.88;4.00;;;;;;;;;;5321397;26;20013;-38
2024/04/09 09:32:24;;;;;;;33.15;4.50;;;;;;;;;;5343685;26;20009;-38
2024/04/09 09:34:53;;;;;;;33.08;4.10;;;;;;;;;;5343529;26;20213;-38
2024/04/09 09:37:21;;;;;;;44.70;4.45;;;;;;;;;;5341297;26;20008;-38
2024/04/09 09:39:51;;;;;;;33.67;4.10;;;;;;;;;;5343579;26;20009;-38
2024/04/09 09:42:19;;;;;;;23.75;3.67;;;;;;;;;;5343401;26;20005;-39
2024/04/09 09:44:47;;;;;;;19.75;3.95;;;;;;;;;;5343312;26;20087;-37
2024/04/09 09:47:16;;;;;;;40.22;4.57;;;;;;;;;;5340383;26;20012;-39
2024/04/09 09:49:44;;;;;;;37.58;4.25;;;;;;;;;;5344415;26;20029;-37
2024/04/09 09:52:11;;;;;;;30.42;4.18;;;;;;;;;;5346238;26;20016;-37
2024/04/09 09:54:38;;;;;;;40.35;4.40;;;;;;;;;;5341913;26;20005;-38
2024/04/09 09:57:07;;;;;;;28.13;4.65;;;;;;;;;;5346832;26;20088;-38
2024/04/09 09:59:36;;;;;;;23.75;3.53;;;;;;;;;;5344194;26;20017;-37
2024/04/09 10:02:04;;;;;;;37.40;5.20;;;;;;;;;;5346363;26;20554;-38
2024/04/09 10:04:31;;;;;;;26.02;3.53;;;;;;;;;;5345941;26;20032;-38
2024/04/09 10:06:59;;;;;;;36.85;4.45;;;;;;;;;;5358094;26;20013;-37
2024/04/09 10:09:46;;;;;;;31.13;3.78;;;;;;;;;;5361225;26;20000;-38
2024/04/09 10:12:25;;;;;;;46.55;4.53;;;;;;;;;;5363846;26;20000;-38
2024/04/09 10:14:56;;;;;;;61.90;5.35;;;;;;;;;;5365050;26;20000;-37
2024/04/09 10:17:23;;;;;;;76.13;6.60;;;;;;;;;;5365132;26;20087;-38
2024/04/09 10:19:50;;;;;;;79.80;6.55;;;;;;;;;;5371527;26;20381;-38
2024/04/09 10:22:17;;;;;;;71.75;6.35;;;;;;;;;;5381499;26;20012;-37
2024/04/09 10:24:44;;;;;;;64.00;6.22;;;;;;;;;;5368143;26;20002;-38
2024/04/09 10:27:13;;;;;;;48.92;5.85;;;;;;;;;;5345298;26;20346;-38
2024/04/09 10:29:49;;;;;;;58.83;5.47;;;;;;;;;;5345257;26;20037;-39
2024/04/09 10:32:24;;;;;;;48.78;5.53;;;;;;;;;;5345935;26;20099;-38
2024/04/09 10:34:51;;;;;;;46.40;5.20;;;;;;;;;;5342326;26;20020;-38
2024/04/09 10:37:18;;;;;;;73.28;6.88;;;;;;;;;;5346164;26;19997;-38
2024/04/09 10:39:45;;;;;;;59.40;5.45;;;;;;;;;;5346138;26;20037;-38
2024/04/09 10:42:19;;;;;;;46.05;5.28;;;;;;;;;;5343911;26;20459;-37
2024/04/09 10:44:46;;;;;;;66.88;6.50;;;;;;;;;;5344694;26;20041;-38
2024/04/09 10:47:13;;;;;;;38.88;5.75;;;;;;;;;;5344722;26;20001;-37
2024/04/09 10:49:40;;;;;;;38.65;5.15;;;;;;;;;;5346614;26;20663;-37
2024/04/09 10:52:07;;;;;;;46.53;5.50;;;;;;;;;;5344564;26;20068;-37
2024/04/09 10:54:34;;;;;;;29.70;4.57;;;;;;;;;;5346192;26;20001;-37
2024/04/09 10:57:01;;;;;;;50.22;5.88;;;;;;;;;;5346817;26;20001;-37
2024/04/09 10:59:28;;;;;;;47.83;4.88;;;;;;;;;;5346646;26;20001;-37
2024/04/09 11:01:56;;;;;;;40.35;5.40;;;;;;;;;;5343532;26;20016;-37
2024/04/09 11:04:23;;;;;;;43.08;5.13;;;;;;;;;;5346260;26;20048;-38
2024/04/09 11:06:51;;;;;;;37.08;4.97;;;;;;;;;;5345103;26;20004;-38
2024/04/09 11:09:21;;;;;;;39.50;5.55;;;;;;;;;;5345666;26;20000;-37
2024/04/09 11:11:48;;;;;;;36.25;4.95;;;;;;;;;;5345623;26;20019;-38
2024/04/09 11:14:15;;;;;;;30.77;5.30;;;;;;;;;;5343423;26;20012;-37
2024/04/09 11:16:48;;;;;;;40.03;4.88;;;;;;;;;;5345175;26;20020;-37
2024/04/09 11:19:27;;;;;;;35.15;5.38;;;;;;;;;;5345265;26;20004;-38
2024/04/09 11:21:54;;;;;;;52.55;4.97;;;;;;;;;;5345883;26;20029;-39
2024/04/09 11:24:22;;;;;;;42.05;5.22;;;;;;;;;;5344304;26;20000;-36
2024/04/09 11:26:49;;;;;;;71.85;6.35;;;;;;;;;;5345634;26;20005;-38
2024/04/09 11:31:08;;;;;;;57.72;5.55;;;;;;;;;;5468523;25;20455;-41
2024/04/09 11:33:35;;;;;;;33.88;4.55;;;;;;;;;;5468680;26;20043;-40
2024/04/09 11:36:02;;;;;;;54.65;4.45;;;;;;;;;;5468658;26;20390;-42
2024/04/09 11:38:29;;;;;;;41.22;4.97;;;;;;;;;;5470030;26;20336;-40
2024/04/09 11:40:56;;;;;;;37.00;4.35;;;;;;;;;;5469776;26;20341;-41
2024/04/09 11:43:24;;;;;;;35.40;5.18;;;;;;;;;;5469677;26;20003;-43
2024/04/09 11:45:51;;;;;;;34.97;4.47;;;;;;;;;;5467918;26;20010;-36
2024/04/09 11:48:19;;;;;;;41.55;4.30;;;;;;;;;;5469756;26;20042;-37
2024/04/09 11:50:46;;;;;;;56.80;4.22;;;;;;;;;;5469772;26;19999;-37
2024/04/09 11:53:13;;;;;;;90.03;8.90;;;;;;;;;;5468968;26;20462;-44
2024/04/09 11:55:40;;;;;;;72.07;9.15;;;;;;;;;;5467979;26;20013;-42
2024/04/09 11:58:07;;;;;;;181.80;16.33;;;;;;;;;;5469640;26;19999;-41
2024/04/09 12:00:34;;;;;;;125.85;13.55;;;;;;;;;;5467729;26;20099;-41
2024/04/09 12:03:02;;;;;;;112.03;11.60;;;;;;;;;;5469405;26;19998;-41
2024/04/09 12:05:29;;;;;;;93.45;9.77;;;;;;;;;;5468984;26;20025;-45
2024/04/09 12:07:56;;;;;;;58.90;8.43;;;;;;;;;;5467861;26;20013;-40
2024/04/09 12:10:23;;;;;;;73.45;9.45;;;;;;;;;;5469589;26;20124;-38
2024/04/09 12:12:52;;;;;;;87.60;9.57;;;;;;;;;;5469011;26;20075;-41
2024/04/09 12:15:19;;;;;;;78.53;8.35;;;;;;;;;;5469304;26;20006;-40
2024/04/09 12:17:47;;;;;;;63.72;8.25;;;;;;;;;;5467493;26;20445;-38
2024/04/09 12:20:14;;;;;;;75.70;8.80;;;;;;;;;;5469300;26;20071;-42
2024/04/09 12:22:41;;;;;;;78.32;6.47;;;;;;;;;;5469090;26;20013;-41
2024/04/09 12:25:08;;;;;;;55.45;6.57;;;;;;;;;;5469052;26;20013;-42
2024/04/09 12:27:35;;;;;;;62.30;6.88;;;;;;;;;;5467047;26;20009;-42
2024/04/09 12:30:02;;;;;;;52.13;7.13;;;;;;;;;;5469119;26;20007;-42
2024/04/09 12:32:29;;;;;;;39.10;6.00;;;;;;;;;;5468655;26;20039;-40
2024/04/09 12:34:57;;;;;;;38.25;5.57;;;;;;;;;;5469013;26;19998;-40
2024/04/09 12:37:24;;;;;;;36.42;4.88;;;;;;;;;;5468403;26;20017;-49
2024/04/09 12:39:52;;;;;;;32.45;4.40;;;;;;;;;;5465831;26;20013;-44
2024/04/09 12:42:19;;;;;;;28.60;4.00;;;;;;;;;;5454386;26;20368;-43
2024/04/09 12:44:46;;;;;;;27.85;4.32;;;;;;;;;;5453448;26;19999;-43
2024/04/09 12:47:13;;;;;;;38.05;4.15;;;;;;;;;;5452986;26;20006;-39
2024/04/09 12:49:40;;;;;;;27.52;3.60;;;;;;;;;;5451067;26;20031;-44
2024/04/09 12:52:09;;;;;;;43.42;4.03;;;;;;;;;;5452887;26;20080;-42
2024/04/09 12:54:36;;;;;;;36.88;3.53;;;;;;;;;;5453036;26;20075;-43
2024/04/09 12:57:03;;;;;;;33.13;3.88;;;;;;;;;;5453423;26;20006;-43
2024/04/09 12:59:37;;;;;;;23.17;3.28;;;;;;;;;;5451248;26;20035;-43
2024/04/09 13:02:04;;;;;;;15.85;2.70;;;;;;;;;;5453268;26;20003;-43
2024/04/09 13:04:32;;;;;;;26.05;3.28;;;;;;;;;;5453136;26;20021;-44
2024/04/09 13:06:59;;;;;;;32.03;4.32;;;;;;;;;;5453087;26;20017;-44
2024/04/09 13:09:26;;;;;;;27.08;3.30;;;;;;;;;;5452704;26;20330;-39
2024/04/09 13:11:53;;;;;;;23.38;3.22;;;;;;;;;;5451217;26;20075;-41
2024/04/09 13:14:21;;;;;;;26.33;3.10;;;;;;;;;;5452927;26;20014;-41
2024/04/09 13:16:48;;;;;;;32.42;3.45;;;;;;;;;;5453019;26;20003;-44
2024/04/09 13:19:15;;;;;;;20.17;2.60;;;;;;;;;;5452661;26;20340;-40
2024/04/09 13:21:42;;;;;;;26.35;2.95;;;;;;;;;;5451071;26;20013;-40
2024/04/09 13:24:09;;;;;;;27.20;3.33;;;;;;;;;;5452830;26;20010;-40
2024/04/09 13:26:36;;;;;;;26.38;3.10;;;;;;;;;;5452925;26;20070;-41
2024/04/09 13:29:05;;;;;;;21.48;2.75;;;;;;;;;;5452875;26;20031;-41
2024/04/09 13:31:36;;;;;;;19.55;2.85;;;;;;;;;;5450838;26;20109;-41
2024/04/09 13:34:03;;;;;;;18.55;2.60;;;;;;;;;;5452925;26;20003;-41
2024/04/09 13:39:40;;;;;;;26.02;3.20;;;;;;;;;;5456182;26;20006;-40
2024/04/09 13:45:17;;;;;;;16.70;2.22;;;;;;;;;;5455795;26;20001;-43
2024/04/09 13:50:48;;;;;;;16.80;2.78;;;;;;;;;;5451588;26;20068;-41
2024/04/09 13:53:15;;;;;;;19.77;2.35;;;;;;;;;;5449030;26;20027;-38
2024/04/09 13:55:42;;;;;;;17.20;2.33;;;;;;;;;;5452230;26;20889;-38
2024/04/09 13:58:11;;;;;;;23.92;2.60;;;;;;;;;;5452978;26;20076;-40
2024/04/09 14:00:38;;;;;;;30.23;3.53;;;;;;;;;;5452163;26;20002;-41
2024/04/09 14:03:05;;;;;;;27.45;3.47;;;;;;;;;;5450893;26;20035;-45
2024/04/09 14:05:33;;;;;;;24.00;3.35;;;;;;;;;;5451747;26;20003;-44
2024/04/09 14:08:01;;;;;;;22.42;2.70;;;;;;;;;;5432145;26;20018;-40
2024/04/09 14:10:28;;;;;;;17.88;2.47;;;;;;;;;;5415894;26;20013;-44
2024/04/09 14:12:55;;;;;;;12.95;2.10;;;;;;;;;;5416080;26;20037;-43
2024/04/09 14:15:22;;;;;;;14.50;2.67;;;;;;;;;;5432743;26;20010;-43
2024/04/09 14:17:52;;;;;;;20.15;2.55;;;;;;;;;;5451712;26;20003;-40
2024/04/09 14:20:19;;;;;;;14.50;2.40;;;;;;;;;;5452235;26;20010;-40
2024/04/09 14:22:47;;;;;;;14.18;2.60;;;;;;;;;;5451866;26;20002;-40
2024/04/09 14:25:15;;;;;;;16.85;2.78;;;;;;;;;;5450344;26;19999;-44
2024/04/09 14:27:42;;;;;;;19.33;2.78;;;;;;;;;;5448193;26;20350;-41
2024/04/09 14:30:10;;;;;;;19.35;4.32;;;;;;;;;;5415997;26;20445;-44
2024/04/09 14:32:37;;;;;;;31.30;6.53;;;;;;;;;;5421451;26;20071;-40
2024/04/09 14:35:05;;;;;;;43.83;9.57;;;;;;;;;;5442273;26;20011;-37
2024/04/09 14:37:32;;;;;;;79.35;21.80;;;;;;;;;;5450394;26;20457;-43
2024/04/09 14:40:00;;;;;;;112.20;31.05;;;;;;;;;;5451537;26;20009;-41
2024/04/09 14:42:26;;;;;;;118.72;31.23;;;;;;;;;;5449064;26;19999;-44
2024/04/09 14:44:53;;;;;;;113.95;34.65;;;;;;;;;;5430945;26;19999;-43